Time;durP1;ratioP1;P1;durP2;ratioP2;P2;SDS_P1;SDS_P2;PMS_P1;PMS_P2;Temp;Humidity;BMP_temperature;BMP_pressure;BME280_temperature;BME280_humidity;BME280_pressure;Samples;Min_cycle;Max_cycle;Signal;HPM_P1;HPM_P2
2022/04/02 00:00:03;;;;;;;;;9.00;9.00;;;;;;;;5284650;23;29148;-95
2022/04/02 00:05:03;;;;;;;;;5.20;5.20;;;;;;;;5035668;23;28098;-95
2022/04/02 00:07:29;;;;;;;;;7.50;5.75;;;;;;;;5008634;28;27656;-95
2022/04/02 00:09:54;;;;;;;;;9.75;7.50;;;;;;;;4997506;28;28067;-94
2022/04/02 00:12:19;;;;;;;;;7.00;6.00;;;;;;;;5015125;28;27948;-96
2022/04/02 00:14:46;;;;;;;;;10.00;7.00;;;;;;;;5015666;28;28470;-96
2022/04/02 00:17:11;;;;;;;;;3.25;3.25;;;;;;;;5000794;28;27790;-96
2022/04/02 00:24:47;;;;;;;;;5.80;5.80;;;;;;;;5442119;23;30079;-95
2022/04/02 00:27:12;;;;;;;;;6.00;6.00;;;;;;;;5013813;28;27911;-94
2022/04/02 00:32:13;;;;;;;;;6.00;6.00;;;;;;;;5321970;23;28032;-93
2022/04/02 00:34:38;;;;;;;;;6.00;6.00;;;;;;;;4980938;28;30013;-92
2022/04/02 00:37:04;;;;;;;;;8.00;6.25;;;;;;;;4980054;28;28428;-93
2022/04/02 00:39:30;;;;;;;;;6.00;6.00;;;;;;;;4978371;28;28342;-90
2022/04/02 00:41:55;;;;;;;;;6.75;6.75;;;;;;;;4976745;28;28609;-92
2022/04/02 00:44:21;;;;;;;;;6.00;5.50;;;;;;;;4977026;28;30612;-92
2022/04/02 00:46:47;;;;;;;;;4.75;4.75;;;;;;;;4978206;28;28855;-93
2022/04/02 00:49:14;;;;;;;;;5.00;5.00;;;;;;;;4984515;28;28215;-93
2022/04/02 00:51:43;;;;;;;;;5.00;5.00;;;;;;;;4997658;28;27952;-91
2022/04/02 00:54:09;;;;;;;;;8.00;5.20;;;;;;;;4980166;28;29964;-93
2022/04/02 00:56:38;;;;;;;;;5.00;5.00;;;;;;;;4986622;28;29028;-93
2022/04/02 00:59:03;;;;;;;;;4.60;4.60;;;;;;;;4979491;28;28452;-94
2022/04/02 01:01:31;;;;;;;;;6.00;4.50;;;;;;;;4979050;28;28419;-91
2022/04/02 01:03:57;;;;;;;;;6.00;6.00;;;;;;;;4979303;28;29982;-92
2022/04/02 01:06:22;;;;;;;;;4.25;4.25;;;;;;;;4977571;28;28693;-94
2022/04/02 01:08:47;;;;;;;;;6.00;4.50;;;;;;;;4984830;28;28429;-93
2022/04/02 01:11:12;;;;;;;;;5.25;5.25;;;;;;;;4978272;28;27881;-93
2022/04/02 01:13:38;;;;;;;;;7.00;6.00;;;;;;;;4977954;28;30402;-92
2022/04/02 01:16:03;;;;;;;;;5.00;5.00;;;;;;;;4979003;28;29276;-96
2022/04/02 01:18:29;;;;;;;;;6.00;5.33;;;;;;;;4980171;28;27850;-93
2022/04/02 01:20:54;;;;;;;;;4.80;4.80;;;;;;;;4979287;28;28341;-94
2022/04/02 01:23:19;;;;;;;;;7.00;5.33;;;;;;;;4979372;28;29662;-93
2022/04/02 01:25:44;;;;;;;;;4.00;4.00;;;;;;;;4978695;28;28351;-94
2022/04/02 01:28:10;;;;;;;;;6.25;6.25;;;;;;;;4980060;28;27710;-93
2022/04/02 01:30:35;;;;;;;;;6.50;4.50;;;;;;;;4978700;28;27922;-94
2022/04/02 01:33:00;;;;;;;;;6.67;5.33;;;;;;;;4977571;28;29673;-93
2022/04/02 01:35:26;;;;;;;;;7.00;7.00;;;;;;;;4977873;28;28762;-92
2022/04/02 01:37:51;;;;;;;;;9.33;5.00;;;;;;;;4977817;28;27777;-92
2022/04/02 01:40:17;;;;;;;;;6.00;6.00;;;;;;;;4977803;28;28374;-93
2022/04/02 01:42:43;;;;;;;;;6.50;5.25;;;;;;;;4977773;28;29706;-91
2022/04/02 01:45:09;;;;;;;;;6.00;6.00;;;;;;;;4978352;28;28843;-95
2022/04/02 01:47:35;;;;;;;;;8.20;8.20;;;;;;;;4982473;28;27832;-92
2022/04/02 01:50:00;;;;;;;;;6.50;6.50;;;;;;;;4983528;28;27863;-94
2022/04/02 01:52:26;;;;;;;;;4.00;4.00;;;;;;;;4984573;28;28397;-94
2022/04/02 01:54:51;;;;;;;;;10.00;9.00;;;;;;;;4983311;28;28439;-94
2022/04/02 01:57:17;;;;;;;;;6.00;6.00;;;;;;;;4984086;28;27914;-93
2022/04/02 01:59:44;;;;;;;;;7.75;7.75;;;;;;;;4981529;28;27829;-94
2022/04/02 02:02:09;;;;;;;;;6.00;6.00;;;;;;;;4981202;28;30025;-93
2022/04/02 02:04:36;;;;;;;;;6.00;6.00;;;;;;;;4981737;28;28580;-94
2022/04/02 02:07:02;;;;;;;;;7.40;7.40;;;;;;;;4982414;28;27759;-94
2022/04/02 02:09:27;;;;;;;;;11.00;8.25;;;;;;;;4981838;28;27847;-93
2022/04/02 02:11:52;;;;;;;;;10.75;9.25;;;;;;;;4982061;28;30280;-92
2022/04/02 02:14:17;;;;;;;;;8.00;8.00;;;;;;;;4980543;28;27782;-94
2022/04/02 02:16:43;;;;;;;;;5.00;5.00;;;;;;;;4977802;28;28279;-93
2022/04/02 02:19:08;;;;;;;;;6.00;4.00;;;;;;;;4977171;28;28322;-93
2022/04/02 02:21:34;;;;;;;;;9.00;6.00;;;;;;;;4978036;28;30989;-92
2022/04/02 02:23:59;;;;;;;;;9.25;8.25;;;;;;;;4979025;28;28906;-91
2022/04/02 02:26:24;;;;;;;;;8.75;8.75;;;;;;;;4979054;28;28247;-91
2022/04/02 02:28:50;;;;;;;;;6.00;6.00;;;;;;;;4979407;28;28306;-91
2022/04/02 02:31:15;;;;;;;;;8.00;8.00;;;;;;;;4979408;28;29975;-93
2022/04/02 02:36:25;;;;;;;;;10.00;9.00;;;;;;;;4996834;28;28270;-94
2022/04/02 02:38:50;;;;;;;;;8.25;6.50;;;;;;;;4981399;28;28068;-91
2022/04/02 02:41:16;;;;;;;;;8.00;8.00;;;;;;;;4978844;28;30749;-92
2022/04/02 02:43:41;;;;;;;;;6.00;6.00;;;;;;;;4979410;28;27923;-92
2022/04/02 02:46:07;;;;;;;;;7.33;7.33;;;;;;;;4980023;28;27835;-92
2022/04/02 02:48:32;;;;;;;;;5.00;5.00;;;;;;;;4980310;28;28396;-92
2022/04/02 02:50:57;;;;;;;;;5.33;5.33;;;;;;;;4978951;28;30076;-92
2022/04/02 02:53:22;;;;;;;;;8.25;8.25;;;;;;;;4978552;28;28850;-92
2022/04/02 02:55:51;;;;;;;;;9.00;6.67;;;;;;;;4979194;28;28457;-93
2022/04/02 02:58:16;;;;;;;;;9.00;8.00;;;;;;;;4979029;28;27835;-93
2022/04/02 03:00:42;;;;;;;;;6.50;6.50;;;;;;;;4981367;28;29728;-95
2022/04/02 03:03:07;;;;;;;;;5.75;5.75;;;;;;;;4980591;28;28684;-93
2022/04/02 03:05:32;;;;;;;;;11.00;8.00;;;;;;;;4980478;28;28290;-94
2022/04/02 03:07:58;;;;;;;;;7.50;7.00;;;;;;;;4985565;28;28095;-93
2022/04/02 03:10:25;;;;;;;;;5.00;5.00;;;;;;;;4987307;28;28337;-92
2022/04/02 03:12:55;;;;;;;;;6.80;5.00;;;;;;;;4993040;28;28804;-95
2022/04/02 03:15:22;;;;;;;;;6.00;6.00;;;;;;;;4993927;28;27699;-94
2022/04/02 03:17:49;;;;;;;;;5.40;5.40;;;;;;;;5009760;28;27811;-93
2022/04/02 03:20:17;;;;;;;;;6.25;5.75;;;;;;;;4988045;28;28282;-93
2022/04/02 03:22:43;;;;;;;;;7.00;4.75;;;;;;;;4981641;28;28649;-91
2022/04/02 03:25:09;;;;;;;;;8.00;8.00;;;;;;;;4979965;28;27868;-92
2022/04/02 03:27:36;;;;;;;;;6.00;5.00;;;;;;;;4980742;28;28639;-94
2022/04/02 03:30:02;;;;;;;;;8.00;8.00;;;;;;;;4981440;28;29958;-92
2022/04/02 03:32:28;;;;;;;;;9.60;6.00;;;;;;;;4981073;28;28780;-93
2022/04/02 03:34:53;;;;;;;;;6.00;6.00;;;;;;;;4982522;28;27791;-94
2022/04/02 03:37:18;;;;;;;;;6.00;6.00;;;;;;;;4982786;28;27932;-93
2022/04/02 03:39:43;;;;;;;;;10.25;10.25;;;;;;;;4982571;28;30057;-94
2022/04/02 03:42:09;;;;;;;;;4.75;4.75;;;;;;;;4981945;28;28324;-91
2022/04/02 03:44:34;;;;;;;;;6.00;6.00;;;;;;;;4980813;28;27884;-93
2022/04/02 03:47:09;;;;;;;;;5.00;5.00;;;;;;;;4981578;28;27853;-95
2022/04/02 03:49:34;;;;;;;;;9.50;8.50;;;;;;;;4981940;28;30222;-94
2022/04/02 03:52:00;;;;;;;;;7.50;7.50;;;;;;;;4981483;28;28526;-93
2022/04/02 03:54:25;;;;;;;;;10.00;8.00;;;;;;;;4981320;28;27837;-92
2022/04/02 03:56:50;;;;;;;;;5.00;5.00;;;;;;;;4981502;28;27902;-93
2022/04/02 03:59:16;;;;;;;;;7.25;6.00;;;;;;;;4981595;28;28456;-93
2022/04/02 04:01:42;;;;;;;;;8.00;8.00;;;;;;;;4982306;28;28856;-93
2022/04/02 04:04:07;;;;;;;;;9.00;8.00;;;;;;;;4979459;28;27937;-92
2022/04/02 04:06:32;;;;;;;;;8.67;8.00;;;;;;;;4980164;28;27997;-92
2022/04/02 04:08:58;;;;;;;;;8.00;8.00;;;;;;;;4981045;28;29824;-92
2022/04/02 04:11:25;;;;;;;;;9.25;7.00;;;;;;;;4978842;28;28843;-91
2022/04/02 04:13:50;;;;;;;;;7.50;7.50;;;;;;;;4986028;28;27866;-93
2022/04/02 04:16:15;;;;;;;;;6.00;6.00;;;;;;;;4979930;28;28440;-93
2022/04/02 04:18:41;;;;;;;;;5.50;5.50;;;;;;;;4979842;28;30688;-92
2022/04/02 04:21:07;;;;;;;;;6.00;6.00;;;;;;;;4979895;28;28613;-94
2022/04/02 04:23:34;;;;;;;;;9.00;8.00;;;;;;;;4982192;28;28038;-94
2022/04/02 04:26:00;;;;;;;;;4.75;4.75;;;;;;;;4980803;28;27794;-93
2022/04/02 04:28:25;;;;;;;;;5.50;5.50;;;;;;;;4979131;28;31072;-93
2022/04/02 04:30:50;;;;;;;;;6.00;6.00;;;;;;;;4977949;28;29574;-94
2022/04/02 04:33:15;;;;;;;;;7.50;7.50;;;;;;;;4977380;28;28884;-92
2022/04/02 04:35:40;;;;;;;;;6.25;4.75;;;;;;;;4976769;28;28006;-92
2022/04/02 04:38:06;;;;;;;;;5.00;5.00;;;;;;;;4979937;28;29859;-89
2022/04/02 04:40:33;;;;;;;;;7.75;7.75;;;;;;;;4982232;28;28567;-93
2022/04/02 04:42:58;;;;;;;;;8.60;6.00;;;;;;;;4980978;28;27806;-93
2022/04/02 04:45:24;;;;;;;;;5.00;5.00;;;;;;;;4980512;28;27925;-94
2022/04/02 04:48:02;;;;;;;;;9.20;8.00;;;;;;;;4992567;28;29987;-94
2022/04/02 04:50:28;;;;;;;;;6.00;5.00;;;;;;;;4988985;28;27703;-94
2022/04/02 04:52:53;;;;;;;;;5.25;5.25;;;;;;;;4986781;28;27809;-95
2022/04/02 04:55:18;;;;;;;;;6.00;6.00;;;;;;;;4986205;28;28046;-93
2022/04/02 04:57:45;;;;;;;;;5.67;5.67;;;;;;;;4987166;28;28163;-94
2022/04/02 05:00:10;;;;;;;;;4.75;4.75;;;;;;;;4989109;28;27861;-94
2022/04/02 05:02:45;;;;;;;;;9.00;9.00;;;;;;;;4988851;28;27954;-95
2022/04/02 05:05:12;;;;;;;;;5.25;5.25;;;;;;;;5003470;28;27875;-94
2022/04/02 05:07:37;;;;;;;;;5.25;5.25;;;;;;;;4982735;28;29169;-94
2022/04/02 05:10:02;;;;;;;;;8.00;6.00;;;;;;;;4981789;28;28412;-93
2022/04/02 05:12:28;;;;;;;;;5.50;5.50;;;;;;;;4975524;28;28321;-91
2022/04/02 05:14:53;;;;;;;;;5.00;5.00;;;;;;;;4974915;28;28520;-90
2022/04/02 05:17:18;;;;;;;;;6.50;6.50;;;;;;;;4990234;28;28545;-86
2022/04/02 05:19:44;;;;;;;;;7.33;6.00;;;;;;;;4990120;28;28761;-86
2022/04/02 05:22:10;;;;;;;;;6.00;6.00;;;;;;;;4990025;28;28348;-86
2022/04/02 05:24:36;;;;;;;;;8.20;8.20;;;;;;;;4989873;28;28555;-86
2022/04/02 05:27:01;;;;;;;;;8.20;8.20;;;;;;;;4978666;28;28578;-87
2022/04/02 05:29:26;;;;;;;;;12.00;9.00;;;;;;;;4991490;28;28487;-86
2022/04/02 05:31:52;;;;;;;;;8.67;8.67;;;;;;;;4993736;28;28477;-88
2022/04/02 05:34:17;;;;;;;;;11.00;11.00;;;;;;;;4971991;28;28356;-85
2022/04/02 05:36:43;;;;;;;;;5.00;5.00;;;;;;;;4983932;28;28600;-84
2022/04/02 05:39:08;;;;;;;;;11.60;8.60;;;;;;;;4970169;28;28549;-86
2022/04/02 05:41:33;;;;;;;;;6.00;6.00;;;;;;;;4969938;28;28346;-85
2022/04/02 05:43:58;;;;;;;;;8.67;8.67;;;;;;;;4970097;28;28437;-86
2022/04/02 05:46:24;;;;;;;;;10.67;10.00;;;;;;;;4969802;28;28453;-86
2022/04/02 05:48:49;;;;;;;;;16.50;10.50;;;;;;;;4970006;28;28362;-89
2022/04/02 05:51:14;;;;;;;;;9.67;9.67;;;;;;;;4971394;28;28536;-87
2022/04/02 05:53:39;;;;;;;;;10.00;8.25;;;;;;;;4965364;28;28938;-85
2022/04/02 05:56:05;;;;;;;;;11.00;9.67;;;;;;;;4968375;28;28279;-88
2022/04/02 05:58:30;;;;;;;;;11.00;10.00;;;;;;;;4970288;28;28329;-87
2022/04/02 06:00:56;;;;;;;;;10.00;10.00;;;;;;;;4969300;28;28418;-86
2022/04/02 06:03:21;;;;;;;;;12.00;10.67;;;;;;;;4969551;28;28438;-86
2022/04/02 06:05:48;;;;;;;;;13.00;13.00;;;;;;;;4968850;28;28412;-89
2022/04/02 06:08:15;;;;;;;;;11.00;11.00;;;;;;;;4971236;28;28376;-91
2022/04/02 06:10:40;;;;;;;;;10.25;10.25;;;;;;;;4970191;28;28601;-89
2022/04/02 06:13:06;;;;;;;;;12.75;11.25;;;;;;;;4954349;28;28267;-91
2022/04/02 06:15:31;;;;;;;;;10.67;10.67;;;;;;;;4953248;28;30781;-91
2022/04/02 06:17:56;;;;;;;;;12.00;9.75;;;;;;;;4935447;28;28499;-92
2022/04/02 06:20:21;;;;;;;;;11.67;11.67;;;;;;;;4935626;28;28390;-89
2022/04/02 06:22:47;;;;;;;;;11.75;10.25;;;;;;;;4952948;28;28275;-90
2022/04/02 06:25:12;;;;;;;;;13.00;11.33;;;;;;;;4971229;28;29179;-88
2022/04/02 06:27:44;;;;;;;;;13.67;13.67;;;;;;;;4975142;28;28315;-93
2022/04/02 06:30:10;;;;;;;;;11.25;11.25;;;;;;;;4949397;28;28334;-90
2022/04/02 06:32:35;;;;;;;;;13.75;13.25;;;;;;;;4986597;28;28267;-90
2022/04/02 06:35:01;;;;;;;;;12.33;12.33;;;;;;;;4971997;28;29858;-89
2022/04/02 06:37:31;;;;;;;;;17.00;13.00;;;;;;;;4992421;28;28340;-92
2022/04/02 06:39:57;;;;;;;;;11.00;11.00;;;;;;;;4979125;28;28606;-93
2022/04/02 06:42:22;;;;;;;;;13.50;13.50;;;;;;;;4973413;28;28412;-89
2022/04/02 06:44:47;;;;;;;;;14.67;14.67;;;;;;;;4992443;28;29369;-88
2022/04/02 06:47:12;;;;;;;;;13.33;13.33;;;;;;;;4976816;28;28913;-93
2022/04/02 06:49:39;;;;;;;;;12.00;12.00;;;;;;;;4988364;28;28783;-92
2022/04/02 06:52:04;;;;;;;;;14.00;12.00;;;;;;;;4981713;28;28455;-93
2022/04/02 06:54:35;;;;;;;;;13.00;13.00;;;;;;;;4977667;28;29654;-93
2022/04/02 06:57:01;;;;;;;;;12.00;12.00;;;;;;;;4980658;28;28357;-93
2022/04/02 06:59:26;;;;;;;;;13.25;11.25;;;;;;;;4973684;28;28440;-91
2022/04/02 07:01:51;;;;;;;;;11.00;11.00;;;;;;;;4977791;28;28767;-91
2022/04/02 07:04:16;;;;;;;;;11.33;10.00;;;;;;;;4983246;28;28729;-92
2022/04/02 07:06:46;;;;;;;;;11.00;11.00;;;;;;;;4986423;28;29345;-93
2022/04/02 07:09:14;;;;;;;;;12.60;11.00;;;;;;;;4985807;28;28386;-93
2022/04/02 07:12:01;;;;;;;;;11.25;10.00;;;;;;;;4984963;28;28125;-94
2022/04/02 07:14:29;;;;;;;;;10.00;10.00;;;;;;;;5010473;28;28264;-95
2022/04/02 07:17:00;;;;;;;;;14.00;11.33;;;;;;;;5014726;28;27813;-94
2022/04/02 07:19:25;;;;;;;;;10.80;10.80;;;;;;;;4994509;28;27951;-92
2022/04/02 07:21:51;;;;;;;;;7.75;7.75;;;;;;;;4997245;28;27874;-94
2022/04/02 07:24:41;;;;;;;;;13.00;10.00;;;;;;;;5000733;28;28281;-95
2022/04/02 07:27:10;;;;;;;;;6.40;6.40;;;;;;;;5015679;28;27836;-94
2022/04/02 07:29:36;;;;;;;;;8.00;8.00;;;;;;;;4997198;28;27813;-93
2022/04/02 07:32:02;;;;;;;;;10.00;10.00;;;;;;;;4991786;28;27959;-92
2022/04/02 07:34:27;;;;;;;;;9.50;7.25;;;;;;;;4991952;28;28116;-94
2022/04/02 07:37:11;;;;;;;;;11.00;11.00;;;;;;;;4988155;28;27837;-93
2022/04/02 07:39:49;;;;;;;;;11.00;8.25;;;;;;;;4989988;28;27797;-95
2022/04/02 07:42:18;;;;;;;;;7.00;7.00;;;;;;;;4987812;28;27920;-93
2022/04/02 07:45:02;;;;;;;;;7.00;7.00;;;;;;;;4989345;28;30301;-94
2022/04/02 07:47:30;;;;;;;;;7.20;7.20;;;;;;;;4990166;28;27830;-93
2022/04/02 07:49:58;;;;;;;;;8.75;7.50;;;;;;;;4989568;28;27806;-94
2022/04/02 07:52:24;;;;;;;;;7.00;5.50;;;;;;;;4988860;28;27976;-96
2022/04/02 07:54:54;;;;;;;;;9.00;9.00;;;;;;;;4988551;28;28295;-94
2022/04/02 07:57:24;;;;;;;;;8.00;7.00;;;;;;;;4990473;28;28606;-93
2022/04/02 07:59:55;;;;;;;;;6.40;6.40;;;;;;;;4990650;28;27773;-95
2022/04/02 08:02:38;;;;;;;;;7.00;7.00;;;;;;;;4991272;28;27861;-93
2022/04/02 08:05:08;;;;;;;;;5.00;5.00;;;;;;;;4991393;28;30396;-94
2022/04/02 08:07:36;;;;;;;;;6.67;6.67;;;;;;;;4992472;28;27927;-93
2022/04/02 08:10:05;;;;;;;;;7.00;7.00;;;;;;;;4997232;28;27990;-94
2022/04/02 08:15:12;;;;;;;;;6.60;5.00;;;;;;;;5643892;23;29707;-94
2022/04/02 08:17:38;;;;;;;;;3.00;3.00;;;;;;;;4986496;28;27813;-94
2022/04/02 08:20:04;;;;;;;;;4.60;4.60;;;;;;;;4960446;28;28392;-90
2022/04/02 08:22:29;;;;;;;;;6.00;5.00;;;;;;;;5065761;23;28722;-88
2022/04/02 08:24:55;;;;;;;;;8.00;6.00;;;;;;;;5019791;28;28475;-94
2022/04/02 08:27:33;;;;;;;;;6.75;6.75;;;;;;;;5002647;28;28847;-93
2022/04/02 08:30:02;;;;;;;;;7.00;5.00;;;;;;;;5002824;28;27743;-94
2022/04/02 08:32:37;;;;;;;;;7.00;7.00;;;;;;;;5004373;28;28230;-93
2022/04/02 08:35:13;;;;;;;;;7.00;7.00;;;;;;;;5006577;28;28454;-96
2022/04/02 08:37:57;;;;;;;;;7.00;7.00;;;;;;;;5004471;28;27759;-94
2022/04/02 08:40:25;;;;;;;;;9.75;9.00;;;;;;;;5005697;28;28240;-93
2022/04/02 08:43:09;;;;;;;;;7.25;7.25;;;;;;;;5006231;28;27873;-92
2022/04/02 08:45:40;;;;;;;;;9.75;8.75;;;;;;;;5003006;28;28632;-93
2022/04/02 08:48:20;;;;;;;;;7.60;7.60;;;;;;;;5003887;28;29024;-93
2022/04/02 08:50:47;;;;;;;;;8.00;8.00;;;;;;;;5003339;28;27973;-93
2022/04/02 08:53:15;;;;;;;;;10.20;8.80;;;;;;;;5001285;28;27963;-93
2022/04/02 08:55:44;;;;;;;;;10.50;9.00;;;;;;;;4999687;28;30154;-93
2022/04/02 08:58:34;;;;;;;;;12.75;10.00;;;;;;;;4999769;28;28532;-92
2022/04/02 09:00:59;;;;;;;;;12.25;12.00;;;;;;;;4988599;28;28437;-93
2022/04/02 09:03:41;;;;;;;;;8.33;8.33;;;;;;;;4998834;28;28544;-93
2022/04/02 09:06:28;;;;;;;;;9.50;9.50;;;;;;;;4996639;28;29825;-94
2022/04/02 09:09:07;;;;;;;;;11.00;11.00;;;;;;;;4998789;28;28393;-94
2022/04/02 09:11:35;;;;;;;;;11.00;10.00;;;;;;;;4998816;28;28266;-95
2022/04/02 09:14:19;;;;;;;;;9.40;8.00;;;;;;;;4998870;28;28322;-92
2022/04/02 09:16:48;;;;;;;;;11.20;11.20;;;;;;;;4998260;28;28588;-93
2022/04/02 09:19:32;;;;;;;;;10.00;8.50;;;;;;;;4997768;28;28833;-92
2022/04/02 09:22:14;;;;;;;;;10.80;9.00;;;;;;;;5005707;28;28255;-93
2022/04/02 09:24:53;;;;;;;;;8.20;8.20;;;;;;;;4999265;28;28323;-91
2022/04/02 09:27:24;;;;;;;;;10.00;9.75;;;;;;;;4992811;28;30789;-91
2022/04/02 09:30:01;;;;;;;;;9.00;9.00;;;;;;;;4995831;28;28898;-90
2022/04/02 09:32:45;;;;;;;;;7.75;7.75;;;;;;;;4999981;28;28490;-95
2022/04/02 09:43:17;;;;;;;;;8.00;8.00;;;;;;;;5324917;23;29049;-92
2022/04/02 09:45:48;;;;;;;;;7.20;7.20;;;;;;;;4978741;28;27625;-95
2022/04/02 09:48:18;;;;;;;;;7.00;7.00;;;;;;;;4975684;28;28398;-94
2022/04/02 09:50:45;;;;;;;;;10.40;7.00;;;;;;;;4976923;28;29354;-93
2022/04/02 09:53:21;;;;;;;;;7.60;7.40;;;;;;;;4974721;28;27793;-93
2022/04/02 09:56:05;;;;;;;;;9.00;9.00;;;;;;;;4974905;28;28293;-94
2022/04/02 10:01:05;;;;;;;;;10.60;10.00;;;;;;;;5005773;28;28372;-92
2022/04/02 10:03:34;;;;;;;;;10.25;9.25;;;;;;;;4976076;28;27840;-93
2022/04/02 10:06:22;;;;;;;;;7.25;7.25;;;;;;;;4981842;28;27947;-94
2022/04/02 10:08:55;;;;;;;;;8.25;8.25;;;;;;;;5060050;23;28646;-89
2022/04/02 10:11:24;;;;;;;;;8.75;8.75;;;;;;;;4997499;28;28393;-90
2022/04/02 10:13:51;;;;;;;;;9.00;9.00;;;;;;;;4998440;28;28357;-91
2022/04/02 10:16:18;;;;;;;;;9.00;9.00;;;;;;;;4968749;28;28576;-92
2022/04/02 10:18:44;;;;;;;;;12.00;10.00;;;;;;;;4981228;28;29714;-90
2022/04/02 10:21:13;;;;;;;;;11.40;11.40;;;;;;;;4975339;28;28411;-90
2022/04/02 10:23:41;;;;;;;;;10.50;9.75;;;;;;;;4971954;28;28867;-95
2022/04/02 10:26:16;;;;;;;;;10.25;10.25;;;;;;;;4991769;28;28311;-84
2022/04/02 10:28:44;;;;;;;;;11.40;9.20;;;;;;;;4984771;28;28442;-92
2022/04/02 10:31:13;;;;;;;;;11.40;9.80;;;;;;;;4975819;28;29558;-92
2022/04/02 10:33:39;;;;;;;;;11.80;10.40;;;;;;;;4971477;28;28448;-88
2022/04/02 10:36:07;;;;;;;;;9.25;9.25;;;;;;;;4989040;28;27798;-90
2022/04/02 10:38:37;;;;;;;;;8.00;8.00;;;;;;;;4987723;28;28511;-88
2022/04/02 10:41:16;;;;;;;;;8.00;8.00;;;;;;;;4988619;28;28325;-90
2022/04/02 10:43:44;;;;;;;;;7.40;7.40;;;;;;;;4991582;28;28447;-88
2022/04/02 10:46:10;;;;;;;;;6.40;6.40;;;;;;;;4991371;28;28440;-87
2022/04/02 10:48:53;;;;;;;;;8.67;7.67;;;;;;;;4991897;28;28334;-88
2022/04/02 10:51:21;;;;;;;;;6.40;6.40;;;;;;;;4991622;28;28444;-88
2022/04/02 10:53:47;;;;;;;;;9.00;8.00;;;;;;;;4991499;28;28251;-87
2022/04/02 10:56:16;;;;;;;;;8.67;8.00;;;;;;;;4973799;28;28456;-87
2022/04/02 10:58:45;;;;;;;;;7.80;7.80;;;;;;;;4991585;28;28654;-87
2022/04/02 11:01:11;;;;;;;;;9.75;9.25;;;;;;;;4991472;28;28373;-87
2022/04/02 11:03:42;;;;;;;;;6.50;6.50;;;;;;;;4991150;28;28322;-87
2022/04/02 11:06:08;;;;;;;;;7.75;7.75;;;;;;;;4973803;28;28435;-87
2022/04/02 11:08:33;;;;;;;;;5.80;5.80;;;;;;;;4991156;28;29140;-87
2022/04/02 11:10:59;;;;;;;;;6.33;6.33;;;;;;;;4991702;28;28472;-87
2022/04/02 11:13:34;;;;;;;;;7.40;7.40;;;;;;;;4991158;28;28401;-87
2022/04/02 11:15:59;;;;;;;;;10.67;10.67;;;;;;;;4973755;28;28487;-87
2022/04/02 11:18:24;;;;;;;;;8.75;8.75;;;;;;;;4990946;28;28695;-87
2022/04/02 11:20:50;;;;;;;;;7.50;7.50;;;;;;;;4990002;28;28473;-86
2022/04/02 11:23:34;;;;;;;;;8.75;8.75;;;;;;;;4973572;28;28499;-87
2022/04/02 11:26:02;;;;;;;;;8.00;8.00;;;;;;;;4991196;28;28457;-87
2022/04/02 11:28:36;;;;;;;;;10.00;9.25;;;;;;;;4991047;28;28794;-86
2022/04/02 11:31:03;;;;;;;;;8.80;7.20;;;;;;;;4990934;28;28512;-87
2022/04/02 11:33:31;;;;;;;;;6.60;6.60;;;;;;;;4990489;28;28571;-87
2022/04/02 11:36:03;;;;;;;;;7.20;7.20;;;;;;;;4973161;28;28659;-86
2022/04/02 11:38:48;;;;;;;;;7.25;6.25;;;;;;;;4990142;28;28808;-87
2022/04/02 11:41:33;;;;;;;;;8.20;6.60;;;;;;;;4990884;28;28480;-88
2022/04/02 11:44:06;;;;;;;;;8.25;8.25;;;;;;;;4991071;28;28270;-86
2022/04/02 11:46:50;;;;;;;;;7.75;5.75;;;;;;;;4973080;28;28430;-87
2022/04/02 11:49:24;;;;;;;;;6.40;6.40;;;;;;;;4990727;28;28728;-87
2022/04/02 11:51:59;;;;;;;;;7.75;6.50;;;;;;;;4991233;28;28532;-87
2022/04/02 11:54:24;;;;;;;;;8.00;8.00;;;;;;;;4990489;28;28469;-90
2022/04/02 11:56:50;;;;;;;;;6.33;6.33;;;;;;;;4991010;28;28476;-91
2022/04/02 11:59:16;;;;;;;;;6.75;6.75;;;;;;;;4973606;28;29904;-89
2022/04/02 12:01:49;;;;;;;;;9.75;9.75;;;;;;;;4982618;28;28446;-90
2022/04/02 12:04:23;;;;;;;;;9.50;9.50;;;;;;;;4977039;28;28476;-89
2022/04/02 12:06:49;;;;;;;;;8.00;8.00;;;;;;;;4990723;28;28454;-90
2022/04/02 12:09:17;;;;;;;;;10.20;10.20;;;;;;;;4984296;28;28308;-93
2022/04/02 12:11:47;;;;;;;;;6.25;6.25;;;;;;;;4969081;28;28792;-90
2022/04/02 12:14:24;;;;;;;;;7.20;7.20;;;;;;;;4972745;28;28473;-92
2022/04/02 12:16:54;;;;;;;;;9.50;9.50;;;;;;;;4973193;28;28516;-91
2022/04/02 12:19:22;;;;;;;;;9.00;9.00;;;;;;;;4973297;28;28643;-89
2022/04/02 12:21:47;;;;;;;;;12.75;11.00;;;;;;;;4992133;28;29270;-90
2022/04/02 12:24:13;;;;;;;;;12.50;11.00;;;;;;;;4978078;28;27914;-91
2022/04/02 12:26:39;;;;;;;;;12.60;12.60;;;;;;;;4963736;28;28412;-92
2022/04/02 12:29:05;;;;;;;;;10.25;10.25;;;;;;;;4963158;28;29939;-92
2022/04/02 12:31:30;;;;;;;;;11.75;10.25;;;;;;;;4974878;28;28610;-92
2022/04/02 12:33:56;;;;;;;;;9.40;9.40;;;;;;;;4974419;28;28297;-91
2022/04/02 12:36:32;;;;;;;;;11.20;11.20;;;;;;;;4977629;28;28012;-94
2022/04/02 12:39:19;;;;;;;;;8.50;8.50;;;;;;;;4981871;28;29854;-95
2022/04/02 12:41:48;;;;;;;;;10.25;10.25;;;;;;;;4982265;28;28558;-95
2022/04/02 12:44:17;;;;;;;;;11.00;11.00;;;;;;;;4982097;28;28436;-94
2022/04/02 12:46:43;;;;;;;;;11.50;9.75;;;;;;;;4981266;28;28660;-95
2022/04/02 12:49:08;;;;;;;;;9.00;9.00;;;;;;;;4981279;28;31091;-95
2022/04/02 12:51:34;;;;;;;;;10.67;10.67;;;;;;;;4983814;28;29441;-96
2022/04/02 12:54:12;;;;;;;;;11.00;10.00;;;;;;;;4994086;28;28073;-95
2022/04/02 12:56:39;;;;;;;;;10.75;10.75;;;;;;;;4995425;28;28140;-96
2022/04/02 12:59:17;;;;;;;;;10.40;9.80;;;;;;;;4980935;28;28565;-96
2022/04/02 13:01:44;;;;;;;;;10.40;10.40;;;;;;;;5131369;23;28836;-95
2022/04/02 13:04:14;;;;;;;;;9.25;9.25;;;;;;;;4990307;28;27845;-95
2022/04/02 13:06:39;;;;;;;;;11.40;11.40;;;;;;;;4992407;28;28138;-96
2022/04/02 13:14:49;;;;;;;;;12.75;12.50;;;;;;;;5295131;23;29209;-95
2022/04/02 13:17:19;;;;;;;;;10.00;10.00;;;;;;;;4998240;28;27845;-96
2022/04/02 13:22:56;;;;;;;;;10.20;10.20;;;;;;;;4993793;28;27848;-95
2022/04/02 13:25:26;;;;;;;;;12.80;12.80;;;;;;;;4990275;28;27791;-96
2022/04/02 13:28:11;;;;;;;;;12.00;12.00;;;;;;;;4977134;28;27966;-95
2022/04/02 13:30:44;;;;;;;;;10.60;10.60;;;;;;;;4984236;28;28680;-95
2022/04/02 13:33:22;;;;;;;;;10.75;10.25;;;;;;;;4983230;28;28858;-96
2022/04/02 13:35:49;;;;;;;;;7.75;7.75;;;;;;;;4984323;28;27838;-93
2022/04/02 13:38:30;;;;;;;;;7.00;7.00;;;;;;;;4985372;28;27948;-94
2022/04/02 13:48:47;;;;;;;;;11.00;11.00;;;;;;;;4967859;28;28993;-92
2022/04/02 13:51:15;;;;;;;;;7.50;7.50;;;;;;;;4959888;28;28269;-94
2022/04/02 13:53:42;;;;;;;;;6.00;6.00;;;;;;;;4947674;28;28832;-94
2022/04/02 13:56:14;;;;;;;;;7.40;7.40;;;;;;;;4986248;23;28039;-93
2022/04/02 13:58:41;;;;;;;;;8.80;8.80;;;;;;;;4963540;28;27952;-88
2022/04/02 14:01:11;;;;;;;;;6.25;6.25;;;;;;;;4958477;28;30350;-92
2022/04/02 14:03:43;;;;;;;;;7.60;7.60;;;;;;;;4958159;28;28933;-94
2022/04/02 14:06:09;;;;;;;;;8.50;8.50;;;;;;;;4976928;28;27866;-94
2022/04/02 14:08:36;;;;;;;;;6.60;6.60;;;;;;;;4959122;28;28433;-94
2022/04/02 14:11:10;;;;;;;;;7.00;7.00;;;;;;;;4960293;28;30332;-93
2022/04/02 14:13:42;;;;;;;;;7.80;7.80;;;;;;;;4960035;28;28885;-94
2022/04/02 14:16:12;;;;;;;;;5.20;5.20;;;;;;;;4960272;28;28279;-94
2022/04/02 14:18:38;;;;;;;;;9.60;9.60;;;;;;;;4965440;28;27850;-94
2022/04/02 14:21:08;;;;;;;;;9.40;9.00;;;;;;;;4967006;28;30413;-94
2022/04/02 14:23:48;;;;;;;;;9.00;9.00;;;;;;;;4967391;28;28847;-94
2022/04/02 14:26:16;;;;;;;;;9.20;9.20;;;;;;;;4985739;28;27927;-93
2022/04/02 14:29:01;;;;;;;;;10.00;8.80;;;;;;;;4985376;28;28452;-94
2022/04/02 14:31:35;;;;;;;;;8.20;8.20;;;;;;;;4984566;28;30289;-94
2022/04/02 14:34:19;;;;;;;;;10.25;9.00;;;;;;;;4984140;28;28532;-93
2022/04/02 14:37:08;;;;;;;;;8.00;8.00;;;;;;;;4968154;28;28021;-94
2022/04/02 14:39:52;;;;;;;;;7.80;7.80;;;;;;;;4902478;29;28408;-92
2022/04/02 14:42:40;;;;;;;;;9.50;9.50;;;;;;;;4905862;29;30060;-94
2022/04/02 14:45:24;;;;;;;;;9.00;9.00;;;;;;;;4905831;29;28447;-93
2022/04/02 14:47:55;;;;;;;;;10.80;9.60;;;;;;;;4905544;29;27805;-95
2022/04/02 14:50:32;;;;;;;;;12.00;12.00;;;;;;;;4907296;29;27935;-94
2022/04/02 14:52:59;;;;;;;;;8.80;8.80;;;;;;;;4908090;29;29063;-94
2022/04/02 14:55:28;;;;;;;;;10.00;10.00;;;;;;;;4913188;29;29387;-94
2022/04/02 14:58:12;;;;;;;;;10.60;9.60;;;;;;;;4903906;29;28453;-93
2022/04/02 15:00:44;;;;;;;;;8.00;8.00;;;;;;;;4937775;23;28641;-95
2022/04/02 15:03:23;;;;;;;;;7.80;7.80;;;;;;;;4941861;28;31176;-90
2022/04/02 15:08:39;;;;;;;;;11.60;10.00;;;;;;;;4958204;28;28586;-93
2022/04/02 15:11:10;;;;;;;;;10.50;10.50;;;;;;;;4943622;28;28699;-93
2022/04/02 15:13:37;;;;;;;;;11.00;11.00;;;;;;;;4945295;28;28322;-94
2022/04/02 15:16:04;;;;;;;;;11.60;11.60;;;;;;;;4941388;28;28749;-92
2022/04/02 15:18:30;;;;;;;;;11.00;9.75;;;;;;;;4941641;28;27807;-92
2022/04/02 15:21:23;;;;;;;;;10.75;10.25;;;;;;;;4941999;28;28228;-92
2022/04/02 15:23:50;;;;;;;;;11.20;9.60;;;;;;;;4954828;28;29114;-94
2022/04/02 15:26:22;;;;;;;;;8.75;8.75;;;;;;;;4940624;28;28989;-81
2022/04/02 15:28:49;;;;;;;;;10.00;10.00;;;;;;;;4937880;28;28592;-88
2022/04/02 15:31:14;;;;;;;;;12.00;10.80;;;;;;;;4938584;28;28387;-94